Time;durP1;ratioP1;P1;durP2;ratioP2;P2;SDS_P1;SDS_P2;PMS_P1;PMS_P2;Temp;Humidity;BMP_temperature;BMP_pressure;BME280_temperature;BME280_humidity;BME280_pressure;Samples;Min_cycle;Max_cycle;Signal;HPM_P1;HPM_P2
2022/03/17 00:02:04;;;;;;;;;;;11.20;99.90;;;;;;5051899;28;19990;-74
2022/03/17 00:04:31;;;;;;;;;;;11.20;99.90;;;;;;5052942;28;19971;-74
2022/03/17 00:06:58;;;;;;;;;;;11.20;99.90;;;;;;5049058;28;20055;-74
2022/03/17 00:09:26;;;;;;;;;;;11.20;99.90;;;;;;5046159;28;20295;-74
2022/03/17 00:11:52;;;;;;;;;;;11.20;99.90;;;;;;5042045;28;19921;-74
2022/03/17 00:14:19;;;;;;;;;;;11.20;99.90;;;;;;5045311;28;19927;-74
2022/03/17 00:16:45;;;;;;;5.28;5.18;;;11.20;99.90;;;;;;5047716;28;20490;-74
2022/03/17 00:19:12;;;;;;;;;;;11.20;99.90;;;;;;5045120;28;20305;-75
2022/03/17 00:21:39;;;;;;;;;;;11.20;99.90;;;;;;5046127;28;20270;-74
2022/03/17 00:24:07;;;;;;;;;;;11.20;99.90;;;;;;5045821;28;20504;-74
2022/03/17 00:26:36;;;;;;;;;;;11.20;99.90;;;;;;5046989;28;19928;-74
2022/03/17 00:29:03;;;;;;;;;;;11.20;99.90;;;;;;5052765;28;19925;-74
2022/03/17 00:31:30;;;;;;;3.55;3.53;;;11.20;99.90;;;;;;5047475;28;20730;-74
2022/03/17 00:33:56;;;;;;;;;;;11.10;99.90;;;;;;5084495;22;20234;-71
2022/03/17 00:36:23;;;;;;;;;;;11.10;99.90;;;;;;5072134;28;19920;-72
2022/03/17 00:38:49;;;;;;;;;;;11.10;99.90;;;;;;5064571;28;19921;-71
2022/03/17 00:41:16;;;;;;;;;;;11.20;99.90;;;;;;5043486;28;20576;-71
2022/03/17 00:43:44;;;;;;;;;;;11.10;99.90;;;;;;5039585;28;19967;-71
2022/03/17 00:46:11;;;;;;;;;;;11.10;99.90;;;;;;5048363;28;20276;-72
2022/03/17 00:48:37;;;;;;;;;;;11.10;99.90;;;;;;5050300;28;19928;-72
2022/03/17 00:51:04;;;;;;;;;;;11.00;99.90;;;;;;5051367;28;19986;-71
2022/03/17 00:53:30;;;;;;;;;;;11.00;99.90;;;;;;5057699;28;19925;-72
2022/03/17 00:55:57;;;;;;;;;;;11.00;99.90;;;;;;5048146;28;20368;-72
2022/03/17 00:58:23;;;;;;;;;;;10.90;99.90;;;;;;5047323;28;19975;-72
2022/03/17 01:00:51;;;;;;;;;;;10.90;99.90;;;;;;5047525;28;19925;-71
2022/03/17 01:03:19;;;;;;;;;;;10.90;99.90;;;;;;5040565;28;19928;-72
2022/03/17 01:05:46;;;;;;;;;;;10.90;99.90;;;;;;5048212;28;20298;-71
2022/03/17 01:08:13;;;;;;;;;;;10.90;99.90;;;;;;5045394;28;19928;-71
2022/03/17 01:10:42;;;;;;;;;;;10.90;99.90;;;;;;5051911;28;19935;-71
2022/03/17 01:13:09;;;;;;;5.53;5.43;;;10.90;99.90;;;;;;5047034;28;21007;-72
2022/03/17 01:15:36;;;;;;;;;;;10.90;99.90;;;;;;5040338;28;20211;-70
2022/03/17 01:18:04;;;;;;;;;;;10.90;99.90;;;;;;5050581;28;20016;-70
2022/03/17 01:20:30;;;;;;;;;;;10.90;99.90;;;;;;5049980;28;20413;-71
2022/03/17 01:22:57;;;;;;;;;;;10.90;99.90;;;;;;5058075;28;19973;-71
2022/03/17 01:25:23;;;;;;;;;;;10.90;99.90;;;;;;5047799;28;20037;-71
2022/03/17 01:27:50;;;;;;;;;;;10.90;99.90;;;;;;5047607;28;19992;-71
2022/03/17 01:30:17;;;;;;;;;;;10.90;99.90;;;;;;5049659;28;19925;-71
2022/03/17 01:32:44;;;;;;;11.18;9.60;;;10.90;99.90;;;;;;5048206;28;20459;-71
2022/03/17 01:35:13;;;;;;;11.30;10.17;;;10.90;99.90;;;;;;5052644;28;20240;-72
2022/03/17 01:37:39;;;;;;;11.97;9.10;;;10.90;99.90;;;;;;5058837;28;20453;-71
2022/03/17 01:40:08;;;;;;;12.13;9.77;;;10.90;99.90;;;;;;5063651;28;20513;-70
2022/03/17 01:42:35;;;;;;;11.30;9.73;;;10.80;99.90;;;;;;5063215;28;20472;-71
2022/03/17 01:45:01;;;;;;;10.37;9.37;;;10.90;99.90;;;;;;5056057;28;20484;-72
2022/03/17 01:47:28;;;;;;;12.50;9.50;;;10.80;99.90;;;;;;5053187;28;21108;-71
2022/03/17 01:49:55;;;;;;;12.33;11.03;;;10.80;99.90;;;;;;5048881;28;20453;-72
2022/03/17 01:52:24;;;;;;;10.90;9.70;;;10.80;99.90;;;;;;5053698;28;20452;-72
2022/03/17 01:54:53;;;;;;;12.37;9.60;;;10.80;99.90;;;;;;5049600;28;20440;-71
2022/03/17 01:57:20;;;;;;;8.77;7.90;;;10.80;99.90;;;;;;5052362;28;20890;-71
2022/03/17 01:59:49;;;;;;;10.13;8.57;;;10.80;99.90;;;;;;5052817;28;20452;-71
2022/03/17 02:02:16;;;;;;;11.03;9.63;;;10.70;99.90;;;;;;5043928;28;20445;-71
2022/03/17 02:04:43;;;;;;;15.03;10.57;;;10.80;99.90;;;;;;5050772;28;20553;-71
2022/03/17 02:07:14;;;;;;;9.80;8.00;;;10.70;99.90;;;;;;5054423;28;20455;-72
2022/03/17 02:09:44;;;;;;;10.30;8.83;;;10.70;99.90;;;;;;5054417;28;20467;-71
2022/03/17 02:14:59;;;;;;;9.47;8.47;;;10.70;99.90;;;;;;5049303;28;20474;-72
2022/03/17 02:17:27;;;;;;;10.63;8.10;;;10.70;99.90;;;;;;5052595;28;20985;-72
2022/03/17 02:19:54;;;;;;;13.03;9.80;;;10.70;99.90;;;;;;5057341;28;21002;-72
2022/03/17 02:22:23;;;;;;;12.07;9.83;;;10.60;99.90;;;;;;5044260;28;20445;-72
2022/03/17 02:27:49;;;;;;;11.50;8.73;;;10.70;99.90;;;;;;5009085;28;20527;-72
2022/03/17 02:30:17;;;;;;;12.70;9.83;;;10.70;99.90;;;;;;5039779;28;20462;-71
2022/03/17 02:32:45;;;;;;;13.23;9.10;;;10.70;99.90;;;;;;5044610;28;20488;-71
2022/03/17 02:35:14;;;;;;;10.17;8.90;;;10.70;99.90;;;;;;5052465;28;20444;-71
2022/03/17 02:37:41;;;;;;;11.13;10.03;;;10.70;99.90;;;;;;5044416;28;20441;-72
2022/03/17 02:40:11;;;;;;;10.23;9.17;;;10.70;99.90;;;;;;5058333;28;20449;-71
2022/03/17 02:42:39;;;;;;;10.97;9.93;;;10.70;99.90;;;;;;5042905;28;20604;-72
2022/03/17 02:45:10;;;;;;;10.53;9.00;;;10.70;99.90;;;;;;5035327;28;20854;-71
2022/03/17 02:47:37;;;;;;;10.63;9.60;;;10.70;99.90;;;;;;5046774;28;20535;-71
2022/03/17 02:50:05;;;;;;;9.87;8.97;;;10.70;99.90;;;;;;5046417;28;20453;-72
2022/03/17 02:52:31;;;;;;;9.47;7.63;;;10.70;99.90;;;;;;5039165;28;20506;-72
2022/03/17 02:54:58;;;;;;;11.60;10.23;;;10.70;99.90;;;;;;5050200;28;20511;-72
2022/03/17 02:57:26;;;;;;;11.70;10.10;;;10.60;99.90;;;;;;5048240;28;20519;-72
2022/03/17 02:59:54;;;;;;;10.57;9.47;;;10.60;99.90;;;;;;5050792;28;20513;-72
2022/03/17 03:02:21;;;;;;;12.03;10.77;;;10.60;99.90;;;;;;5049740;28;20467;-71
2022/03/17 03:04:47;;;;;;;12.10;9.00;;;10.60;99.90;;;;;;5049174;28;20530;-71
2022/03/17 03:07:14;;;;;;;11.57;9.27;;;10.60;99.90;;;;;;5039813;28;20477;-71
2022/03/17 03:09:41;;;;;;;12.37;10.23;;;10.70;99.90;;;;;;5049347;28;20456;-71
2022/03/17 03:12:09;;;;;;;11.37;10.17;;;10.60;99.90;;;;;;5063133;28;20466;-71
2022/03/17 03:14:37;;;;;;;12.00;9.60;;;10.60;99.90;;;;;;5061998;28;20848;-71
2022/03/17 03:17:04;;;;;;;13.50;10.13;;;10.60;99.90;;;;;;5057197;28;20511;-72
2022/03/17 03:19:31;;;;;;;12.50;10.30;;;10.70;99.90;;;;;;5042063;28;20503;-70
2022/03/17 03:21:57;;;;;;;12.80;11.57;;;10.60;99.90;;;;;;5047282;28;20502;-71
2022/03/17 03:24:24;;;;;;;11.47;10.17;;;10.60;99.90;;;;;;5049982;28;20469;-72
2022/03/17 03:26:52;;;;;;;11.77;10.47;;;10.60;99.90;;;;;;5049275;28;20457;-72
2022/03/17 03:29:22;;;;;;;12.73;10.90;;;10.60;99.90;;;;;;5050446;28;20456;-72
2022/03/17 03:31:50;;;;;;;15.80;12.20;;;10.60;99.90;;;;;;5039201;28;20555;-70
2022/03/17 03:34:17;;;;;;;17.30;10.63;;;10.60;99.90;;;;;;5041179;28;20488;-72
2022/03/17 03:39:43;;;;;;;16.17;11.50;;;10.60;99.90;;;;;;5023461;28;20497;-71
2022/03/17 03:42:10;;;;;;;12.13;10.83;;;10.60;99.90;;;;;;5020328;28;20445;-70
2022/03/17 03:44:38;;;;;;;12.13;10.37;;;10.50;99.90;;;;;;5030752;28;20897;-70
2022/03/17 03:47:07;;;;;;;12.30;10.87;;;10.50;99.90;;;;;;5040467;28;20876;-71
2022/03/17 03:49:34;;;;;;;13.20;10.90;;;10.50;99.90;;;;;;5048373;28;20459;-71
2022/03/17 03:52:01;;;;;;;14.47;11.27;;;10.50;99.90;;;;;;5051059;28;20452;-71
2022/03/17 03:54:27;;;;;;;14.80;11.77;;;10.40;99.90;;;;;;5048785;28;20503;-72
2022/03/17 03:56:56;;;;;;;14.90;12.70;;;10.40;99.90;;;;;;5048874;28;20460;-72
2022/03/17 03:59:23;;;;;;;12.47;10.90;;;10.40;99.90;;;;;;5050087;28;20453;-72
2022/03/17 04:01:52;;;;;;;15.63;12.17;;;10.40;99.90;;;;;;5043720;28;20529;-72
2022/03/17 04:04:20;;;;;;;13.37;10.43;;;10.40;99.90;;;;;;5046289;28;20473;-71
2022/03/17 04:06:49;;;;;;;14.93;11.30;;;10.40;99.90;;;;;;5046653;28;20484;-72
2022/03/17 04:09:18;;;;;;;16.07;11.93;;;10.40;99.90;;;;;;5058237;28;20447;-71
2022/03/17 04:11:45;;;;;;;12.50;11.03;;;10.40;99.90;;;;;;5047605;28;20475;-70
2022/03/17 04:14:14;;;;;;;13.87;11.03;;;10.50;99.90;;;;;;5044784;28;20481;-72
2022/03/17 04:16:41;;;;;;;18.43;10.90;;;10.50;99.90;;;;;;5041220;28;20453;-73
2022/03/17 04:19:09;;;;;;;14.53;11.10;;;10.50;99.90;;;;;;5039580;28;20471;-71
2022/03/17 04:21:38;;;;;;;15.67;12.30;;;10.50;99.90;;;;;;5049356;28;20514;-71
2022/03/17 04:24:05;;;;;;;14.43;12.40;;;10.40;99.90;;;;;;5058728;28;21080;-73
2022/03/17 04:26:31;;;;;;;14.73;13.13;;;10.30;99.90;;;;;;5063178;28;21032;-71
2022/03/17 04:28:58;;;;;;;16.33;12.40;;;10.30;99.90;;;;;;5064372;28;20483;-71
2022/03/17 04:31:25;;;;;;;16.13;12.37;;;10.30;99.90;;;;;;5065948;28;20474;-73
2022/03/17 04:33:52;;;;;;;16.37;13.17;;;10.30;99.90;;;;;;5065876;28;20479;-73
2022/03/17 04:36:19;;;;;;;14.70;12.60;;;10.20;99.90;;;;;;5076965;28;20455;-73
2022/03/17 04:38:48;;;;;;;15.57;13.70;;;10.20;99.90;;;;;;5072116;28;20497;-72
2022/03/17 04:41:17;;;;;;;13.77;11.73;;;10.20;99.90;;;;;;5074485;28;20440;-71
2022/03/17 04:43:43;;;;;;;14.03;12.07;;;10.10;99.90;;;;;;5069497;28;20456;-72
2022/03/17 04:46:10;;;;;;;15.73;11.97;;;10.10;99.90;;;;;;5055641;28;20484;-74
2022/03/17 04:48:37;;;;;;;15.37;13.33;;;10.10;99.90;;;;;;5047412;28;20447;-74
2022/03/17 04:51:04;;;;;;;18.60;13.97;;;10.00;99.90;;;;;;5050866;28;20455;-72
2022/03/17 04:53:32;;;;;;;17.03;13.70;;;9.90;99.90;;;;;;5047246;28;20476;-73
2022/03/17 04:56:02;;;;;;;16.43;13.87;;;9.90;99.90;;;;;;5051849;28;20462;-73
2022/03/17 04:58:29;;;;;;;16.80;12.27;;;9.80;99.90;;;;;;5049358;28;20990;-74
2022/03/17 05:00:56;;;;;;;15.47;11.53;;;9.80;99.90;;;;;;5046688;28;20854;-73
2022/03/17 05:03:23;;;;;;;14.73;12.10;;;9.70;99.90;;;;;;5047453;28;20476;-75
2022/03/17 05:05:51;;;;;;;17.03;14.03;;;9.60;99.90;;;;;;5046660;28;21401;-76
2022/03/17 05:08:18;;;;;;;14.43;12.73;;;9.60;99.90;;;;;;5061659;28;21024;-72
2022/03/17 05:10:47;;;;;;;14.00;12.50;;;9.50;99.90;;;;;;5042790;28;20539;-72
2022/03/17 05:13:18;;;;;;;17.37;14.30;;;9.60;99.90;;;;;;5050148;28;20472;-73
2022/03/17 05:15:44;;;;;;;17.50;14.37;;;9.50;99.90;;;;;;5053291;28;20941;-73
2022/03/17 05:18:11;;;;;;;17.27;15.43;;;9.50;99.90;;;;;;5049057;28;20444;-73
2022/03/17 05:20:40;;;;;;;19.57;15.40;;;9.50;99.90;;;;;;5053122;28;20976;-74
2022/03/17 05:23:09;;;;;;;15.33;12.90;;;9.50;99.90;;;;;;5057026;28;20472;-74
2022/03/17 05:25:36;;;;;;;19.10;14.10;;;9.50;99.90;;;;;;5049632;28;20567;-73
2022/03/17 05:28:03;;;;;;;24.23;15.90;;;9.50;99.90;;;;;;5044598;28;20447;-74
2022/03/17 05:30:32;;;;;;;21.90;15.57;;;9.50;99.90;;;;;;5042490;28;20456;-73
2022/03/17 05:32:59;;;;;;;18.53;13.53;;;9.50;99.90;;;;;;5052867;28;20479;-73
2022/03/17 05:35:26;;;;;;;21.53;16.07;;;9.40;99.90;;;;;;5053591;28;20520;-72
2022/03/17 05:37:53;;;;;;;19.97;16.07;;;9.50;99.90;;;;;;5055547;28;20501;-76
2022/03/17 05:40:21;;;;;;;22.83;15.70;;;9.40;99.90;;;;;;5057671;28;20536;-75
2022/03/17 05:42:52;;;;;;;17.77;13.23;;;9.40;99.90;;;;;;5054187;28;20473;-73
2022/03/17 05:45:18;;;;;;;18.17;15.40;;;9.40;99.90;;;;;;5056342;28;20514;-73
2022/03/17 05:47:48;;;;;;;16.77;13.73;;;9.40;99.90;;;;;;5054133;28;20495;-74
2022/03/17 05:50:17;;;;;;;17.90;15.10;;;9.40;99.90;;;;;;5047685;28;20460;-75
2022/03/17 05:52:45;;;;;;;17.30;13.90;;;9.40;99.90;;;;;;5044349;28;20470;-74
2022/03/17 05:55:12;;;;;;;18.97;15.10;;;9.40;99.90;;;;;;5054175;28;20455;-74
2022/03/17 05:57:40;;;;;;;15.67;13.97;;;9.40;99.90;;;;;;5046794;28;20509;-74
2022/03/17 06:00:10;;;;;;;16.13;14.20;;;9.40;99.90;;;;;;5041071;28;20448;-74
2022/03/17 06:02:37;;;;;;;19.20;15.07;;;9.40;99.90;;;;;;5052091;28;20475;-73
2022/03/17 06:05:07;;;;;;;21.70;14.67;;;9.30;99.90;;;;;;5052539;28;20539;-73
2022/03/17 06:07:38;;;;;;;18.73;13.50;;;9.40;99.90;;;;;;5043545;28;20492;-72
2022/03/17 06:10:06;;;;;;;12.13;10.63;;;9.50;99.90;;;;;;5047340;28;20539;-72
2022/03/17 06:12:33;;;;;;;14.70;10.87;;;9.60;99.90;;;;;;5053070;28;20501;-72
2022/03/17 06:14:59;;;;;;;12.20;10.87;;;9.60;99.90;;;;;;5046359;28;20498;-73
2022/03/17 06:17:37;;;;;;;19.33;13.20;;;9.70;99.90;;;;;;5048014;28;20823;-73
2022/03/17 06:20:09;;;;;;;13.23;10.80;;;9.60;99.90;;;;;;5047560;28;20448;-71
2022/03/17 06:22:37;;;;;;;12.83;9.10;;;9.60;99.90;;;;;;5050834;28;21340;-72
2022/03/17 06:25:05;;;;;;;12.90;10.47;;;9.60;99.90;;;;;;5049745;28;20440;-73
2022/03/17 06:27:31;;;;;;;15.33;10.73;;;9.50;99.90;;;;;;5044512;28;20480;-72
2022/03/17 06:29:58;;;;;;;12.80;9.07;;;9.40;99.90;;;;;;5048895;28;20578;-72
2022/03/17 06:32:26;;;;;;;11.60;10.40;;;9.40;99.90;;;;;;5052882;28;20483;-72
2022/03/17 06:34:52;;;;;;;16.63;12.53;;;9.40;99.90;;;;;;5055580;28;20456;-72
2022/03/17 06:37:20;;;;;;;15.43;11.33;;;9.30;99.90;;;;;;5062022;28;20469;-73
2022/03/17 06:39:47;;;;;;;14.23;11.00;;;9.30;99.90;;;;;;5052078;28;20482;-71
2022/03/17 06:42:14;;;;;;;14.70;11.20;;;9.30;99.90;;;;;;5053441;28;20448;-72
2022/03/17 06:44:40;;;;;;;15.20;11.63;;;9.20;99.90;;;;;;5051256;28;20443;-72
2022/03/17 06:47:07;;;;;;;15.43;13.00;;;9.20;99.90;;;;;;5056794;28;20532;-72
2022/03/17 06:49:34;;;;;;;16.20;10.47;;;9.10;99.90;;;;;;5051255;28;20456;-72
2022/03/17 06:52:00;;;;;;;19.87;11.80;;;9.10;99.90;;;;;;5050981;28;20456;-72
2022/03/17 06:54:28;;;;;;;14.53;11.57;;;9.10;99.90;;;;;;5050363;28;20472;-74
2022/03/17 06:56:55;;;;;;;17.27;13.30;;;9.00;99.90;;;;;;5043261;28;20449;-74
2022/03/17 06:59:22;;;;;;;15.80;13.40;;;9.00;99.90;;;;;;5050656;28;20448;-73
2022/03/17 07:01:48;;;;;;;19.43;14.30;;;9.00;99.90;;;;;;5049842;28;20456;-72
2022/03/17 07:04:15;;;;;;;18.38;13.13;;;9.00;99.90;;;;;;5050776;28;21125;-73
2022/03/17 07:06:42;;;;;;;18.73;13.43;;;9.00;99.90;;;;;;5049077;28;20221;-73
2022/03/17 07:09:08;;;;;;;17.40;11.80;;;8.90;99.90;;;;;;5048358;28;20464;-72
2022/03/17 07:11:37;;;;;;;19.43;13.10;;;8.90;99.90;;;;;;5049190;28;20472;-71
2022/03/17 07:14:03;;;;;;;15.40;12.70;;;8.90;99.90;;;;;;5052988;28;20504;-72
2022/03/17 07:16:32;;;;;;;16.02;12.13;;;8.90;99.90;;;;;;5057431;28;20826;-72
2022/03/17 07:18:59;;;;;;;14.63;12.23;;;8.90;99.90;;;;;;5056516;28;20208;-71
2022/03/17 07:21:25;;;;;;;18.25;11.13;;;8.80;99.90;;;;;;5056544;28;20448;-71
2022/03/17 07:23:52;;;;;;;12.10;9.00;;;8.80;99.90;;;;;;5055751;28;20233;-72
2022/03/17 07:26:22;;;;;;;12.93;9.20;;;8.80;99.90;;;;;;5057981;28;21347;-72
2022/03/17 07:28:50;;;;;;;11.20;7.50;;;8.70;99.90;;;;;;5054044;28;20201;-70
2022/03/17 07:31:18;;;;;;;16.00;8.20;;;8.70;99.90;;;;;;5052302;28;20202;-71
2022/03/17 07:33:45;;;;;;;12.63;8.57;;;8.60;99.90;;;;;;5048067;28;20237;-71
2022/03/17 07:36:12;;;;;;;11.15;8.23;;;8.60;99.90;;;;;;5046461;28;20506;-71
2022/03/17 07:38:38;;;;;;;10.20;6.90;;;8.50;99.90;;;;;;5048199;28;20205;-72
2022/03/17 07:41:05;;;;;;;10.40;6.95;;;8.50;99.90;;;;;;5047758;28;20210;-70
2022/03/17 07:43:32;;;;;;;7.78;6.60;;;8.50;99.90;;;;;;5049141;28;20226;-70
2022/03/17 07:45:59;;;;;;;9.38;6.10;;;8.40;99.90;;;;;;5048785;28;20206;-71
2022/03/17 07:48:26;;;;;;;10.40;7.50;;;8.40;99.90;;;;;;5046286;28;20198;-70
2022/03/17 07:50:53;;;;;;;10.07;8.52;;;8.50;99.90;;;;;;5048245;28;20746;-72
2022/03/17 07:53:20;;;;;;;9.32;7.22;;;8.50;99.90;;;;;;5043157;28;20710;-70
2022/03/17 07:55:47;;;;;;;10.27;7.90;;;8.50;99.90;;;;;;5042988;28;20198;-70
2022/03/17 07:58:15;;;;;;;12.88;8.10;;;8.60;99.90;;;;;;5042070;28;20616;-70
2022/03/17 08:00:45;;;;;;;8.63;6.95;;;8.70;99.90;;;;;;5039320;28;20879;-71
2022/03/17 08:03:13;;;;;;;9.30;7.00;;;8.80;99.90;;;;;;5065510;22;20218;-72
2022/03/17 08:05:40;;;;;;;8.40;5.80;;;8.90;99.90;;;;;;5057587;28;20336;-73
2022/03/17 08:08:07;;;;;;;9.23;7.53;;;9.10;99.90;;;;;;5052657;28;20577;-73
2022/03/17 08:10:33;;;;;;;6.50;5.87;;;9.10;99.90;;;;;;5053366;28;20462;-74
2022/03/17 08:13:02;;;;;;;5.93;4.97;;;9.30;99.90;;;;;;5057388;28;20536;-74
2022/03/17 08:15:29;;;;;;;5.03;4.27;;;9.30;99.90;;;;;;5072882;28;20470;-73
2022/03/17 08:17:56;;;;;;;7.37;4.90;;;9.40;99.90;;;;;;5078243;28;20451;-72
2022/03/17 08:20:25;;;;;;;4.87;4.10;;;9.30;99.90;;;;;;5078529;28;20541;-73
2022/03/17 08:22:51;;;;;;;7.90;5.18;;;9.30;99.90;;;;;;5082563;28;20817;-73
2022/03/17 08:25:18;;;;;;;5.80;4.90;;;9.20;99.90;;;;;;5084171;28;20337;-73
2022/03/17 08:27:45;;;;;;;8.23;5.50;;;9.20;99.90;;;;;;5082329;28;20489;-73
2022/03/17 08:30:12;;;;;;;7.43;5.93;;;9.20;99.90;;;;;;5080661;28;20483;-73
2022/03/17 08:32:40;;;;;;;7.13;6.35;;;9.10;99.90;;;;;;5080857;28;20450;-72
2022/03/17 08:35:08;;;;;;;8.90;5.53;;;9.20;99.90;;;;;;5074839;28;20252;-73
2022/03/17 08:37:40;;;;;;;8.77;7.73;;;9.20;99.90;;;;;;5074101;28;20551;-73
2022/03/17 08:40:08;;;;;;;6.53;5.90;;;9.30;99.90;;;;;;5078450;28;20473;-73
2022/03/17 08:42:35;;;;;;;15.53;6.53;;;9.40;99.90;;;;;;5075900;28;20534;-72
2022/03/17 08:49:18;;;;;;;8.47;5.50;;;9.50;99.90;;;;;;5073909;28;20481;-73
2022/03/17 08:50:32;;;;;;;6.53;4.83;;;9.60;99.90;;;;;;5073620;28;20464;-73
2022/03/17 08:53:00;;;;;;;5.30;4.90;;;9.70;99.90;;;;;;5077287;28;20522;-74
2022/03/17 08:55:27;;;;;;;3.80;3.50;;;9.60;99.90;;;;;;5084011;28;20582;-73
2022/03/17 08:57:55;;;;;;;4.10;3.67;;;9.70;99.90;;;;;;5078266;28;20451;-72
2022/03/17 09:00:22;;;;;;;3.73;3.43;;;9.60;99.90;;;;;;5079279;28;20591;-74
2022/03/17 09:02:49;;;;;;;3.60;3.10;;;9.60;99.90;;;;;;5079711;28;21218;-74
2022/03/17 09:05:16;;;;;;;2.43;2.20;;;9.60;99.90;;;;;;5082762;28;20562;-74
2022/03/17 09:07:43;;;;;;;2.90;2.37;;;9.70;99.90;;;;;;5081793;28;20482;-72
2022/03/17 09:10:11;;;;;;;3.60;2.30;;;9.70;99.90;;;;;;5073260;28;20616;-73
2022/03/17 09:12:38;;;;;;;4.10;2.53;;;9.70;99.90;;;;;;5077944;28;20451;-73
2022/03/17 09:15:06;;;;;;;4.20;3.17;;;9.70;99.90;;;;;;5078422;28;20484;-72
2022/03/17 09:17:33;;;;;;;5.63;3.67;;;9.70;99.90;;;;;;5081639;28;22730;-73
2022/03/17 09:20:00;;;;;;;7.17;3.97;;;9.70;99.90;;;;;;5082713;28;20491;-73
2022/03/17 09:22:27;;;;;;;3.60;3.30;;;9.70;99.90;;;;;;5078631;28;20468;-70
2022/03/17 09:24:54;;;;;;;2.97;2.77;;;9.70;99.90;;;;;;5076804;28;20482;-69
2022/03/17 09:27:23;;;;;;;5.63;3.10;;;9.70;99.90;;;;;;5081922;28;20489;-71
2022/03/17 09:29:49;;;;;;;4.00;2.70;;;9.90;99.90;;;;;;5072636;28;20458;-69
2022/03/17 09:32:20;;;;;;;4.07;3.17;;;10.00;99.90;;;;;;5080679;28;20750;-73
2022/03/17 09:34:46;;;;;;;6.83;3.37;;;9.90;99.90;;;;;;5084573;28;20478;-72
2022/03/17 09:37:13;;;;;;;2.37;2.17;;;9.80;99.90;;;;;;5079356;28;20530;-73
2022/03/17 09:39:46;;;;;;;3.40;3.07;;;9.60;99.90;;;;;;5085160;28;20442;-74
2022/03/17 09:42:14;;;;;;;2.60;2.37;;;9.50;99.90;;;;;;5080385;28;20557;-72
2022/03/17 09:44:42;;;;;;;4.10;3.10;;;9.40;99.90;;;;;;5066267;28;20967;-72
2022/03/17 09:47:10;;;;;;;4.73;2.47;;;9.40;99.90;;;;;;5069106;28;20475;-71
2022/03/17 09:49:38;;;;;;;3.10;2.07;;;9.40;99.90;;;;;;5081015;28;20458;-71
2022/03/17 09:52:12;;;;;;;2.43;1.73;;;9.40;99.90;;;;;;5071604;28;20462;-72
2022/03/17 09:54:39;;;;;;;2.97;2.73;;;9.50;99.90;;;;;;5079565;28;20575;-72
2022/03/17 09:57:06;;;;;;;2.87;2.23;;;9.50;99.90;;;;;;5077481;28;20455;-72
2022/03/17 09:59:33;;;;;;;2.57;2.07;;;9.50;99.90;;;;;;5086719;28;20523;-72
2022/03/17 10:02:02;;;;;;;1.73;1.63;;;9.60;99.90;;;;;;5085763;28;20462;-72
2022/03/17 10:04:31;;;;;;;2.30;2.10;;;9.60;99.90;;;;;;5085393;28;20551;-73
2022/03/17 10:06:58;;;;;;;3.47;2.27;;;9.70;99.90;;;;;;5075086;28;20478;-73
2022/03/17 10:09:25;;;;;;;1.60;1.50;;;9.70;99.90;;;;;;5080615;28;20943;-73
2022/03/17 10:12:02;;;;;;;4.33;2.60;;;9.70;99.90;;;;;;5080830;28;20462;-72
2022/03/17 10:14:40;;;;;;;3.70;1.43;;;9.70;99.90;;;;;;5080156;28;20482;-72
2022/03/17 10:17:28;;;;;;;1.67;1.50;;;9.80;99.90;;;;;;5083970;28;20546;-74
2022/03/17 10:20:11;;;;;;;2.77;1.60;;;9.90;99.90;;;;;;5082379;28;20553;-73
2022/03/17 10:22:41;;;;;;;1.93;1.50;;;10.00;99.90;;;;;;5077953;28;20462;-73
2022/03/17 10:25:08;;;;;;;1.90;1.70;;;10.10;99.90;;;;;;5082519;28;20482;-73
2022/03/17 10:27:40;;;;;;;4.00;1.63;;;10.10;99.90;;;;;;5084611;28;20555;-73
2022/03/17 10:30:08;;;;;;;2.93;1.87;;;10.10;99.90;;;;;;5079385;28;20466;-73
2022/03/17 10:32:37;;;;;;;3.87;1.87;;;10.10;99.90;;;;;;5076670;28;20497;-73
2022/03/17 10:35:05;;;;;;;2.57;2.37;;;10.20;99.90;;;;;;5074574;28;20478;-73
2022/03/17 10:37:36;;;;;;;3.70;2.77;;;10.30;99.90;;;;;;5085881;28;21005;-73
2022/03/17 10:40:08;;;;;;;2.93;2.27;;;10.40;99.90;;;;;;5076504;28;20550;-74
2022/03/17 10:42:35;;;;;;;2.43;2.10;;;10.40;99.90;;;;;;5081000;28;20986;-73
2022/03/17 10:45:05;;;;;;;2.20;2.00;;;10.40;99.90;;;;;;5082525;28;20912;-73
2022/03/17 10:47:34;;;;;;;5.70;1.93;;;10.50;99.90;;;;;;5081045;28;20483;-73
2022/03/17 10:50:10;;;;;;;8.93;2.80;;;10.50;99.90;;;;;;5081056;28;20893;-73
2022/03/17 10:52:49;;;;;;;2.93;2.00;;;10.40;99.90;;;;;;5083111;28;20531;-73
2022/03/17 10:55:21;;;;;;;7.23;1.87;;;10.50;99.90;;;;;;5084727;28;20497;-73
2022/03/17 10:57:48;;;;;;;1.53;1.30;;;10.50;99.90;;;;;;5085472;28;21767;-73
2022/03/17 11:00:23;;;;;;;3.33;1.63;;;10.50;99.90;;;;;;5085722;28;20470;-73
2022/03/17 11:02:51;;;;;;;2.77;2.07;;;10.50;99.90;;;;;;5079058;28;20490;-73
2022/03/17 11:05:19;;;;;;;1.60;1.37;;;10.40;99.90;;;;;;5086646;28;20623;-73
2022/03/17 11:07:47;;;;;;;1.70;1.10;;;10.40;99.90;;;;;;5081680;28;20613;-74
2022/03/17 11:10:16;;;;;;;3.73;1.50;;;10.40;99.90;;;;;;5083791;28;20457;-73
2022/03/17 11:12:43;;;;;;;1.40;1.27;;;10.40;99.90;;;;;;5080008;28;20469;-74
2022/03/17 11:15:11;;;;;;;5.80;0.90;;;10.50;99.90;;;;;;5080949;28;20482;-74
2022/03/17 11:17:42;;;;;;;4.43;1.00;;;10.50;99.90;;;;;;5082861;28;20459;-73
2022/03/17 11:20:11;;;;;;;1.77;1.30;;;10.50;99.90;;;;;;5084512;28;20458;-74
2022/03/17 11:22:40;;;;;;;0.93;0.83;;;10.60;99.90;;;;;;5085720;28;20519;-73
2022/03/17 11:25:23;;;;;;;2.33;1.10;;;10.80;99.90;;;;;;5081571;28;20490;-75
2022/03/17 11:27:57;;;;;;;0.70;0.70;;;10.90;99.90;;;;;;5079083;28;20482;-75
2022/03/17 11:30:29;;;;;;;4.03;0.87;;;11.10;99.90;;;;;;5085079;28;20572;-75
2022/03/17 11:32:58;;;;;;;1.10;0.70;;;11.30;99.90;;;;;;5084168;28;20528;-75
2022/03/17 11:35:29;;;;;;;0.80;0.80;;;11.50;99.90;;;;;;5086408;28;20892;-75
2022/03/17 11:38:17;;;;;;;1.43;0.77;;;11.80;99.90;;;;;;5086955;28;20497;-75
2022/03/17 11:41:11;;;;;;;2.17;0.70;;;12.10;99.90;;;;;;5076080;28;20450;-75
2022/03/17 11:44:05;;;;;;;1.00;0.90;;;12.40;99.90;;;;;;5081997;28;20467;-75
2022/03/17 11:46:41;;;;;;;2.10;1.43;;;12.90;99.90;;;;;;5083410;28;20521;-74
2022/03/17 11:49:26;;;;;;;1.00;0.67;;;12.90;99.90;;;;;;5078522;28;20514;-73
2022/03/17 11:51:55;;;;;;;1.00;0.80;;;13.10;99.90;;;;;;5080431;28;20595;-75
2022/03/17 11:54:24;;;;;;;2.73;0.97;;;13.10;99.90;;;;;;5085559;28;20489;-75
2022/03/17 11:56:54;;;;;;;1.07;0.60;;;12.90;99.90;;;;;;5085997;28;20939;-76
2022/03/17 11:59:23;;;;;;;2.30;0.90;;;12.80;99.90;;;;;;5085723;28;20508;-73
2022/03/17 12:01:50;;;;;;;1.43;0.87;;;12.70;99.90;;;;;;5083920;28;20519;-76
2022/03/17 12:04:25;;;;;;;1.23;1.13;;;12.60;99.90;;;;;;5076242;28;20927;-73
2022/03/17 12:07:06;;;;;;;1.37;1.10;;;12.60;99.90;;;;;;5078170;28;20564;-74
2022/03/17 12:09:35;;;;;;;4.50;1.00;;;12.60;99.90;;;;;;5086759;28;20502;-73
2022/03/17 12:12:03;;;;;;;2.07;0.83;;;12.50;99.90;;;;;;5084596;28;20465;-75
2022/03/17 12:14:29;;;;;;;1.00;0.80;;;12.30;99.90;;;;;;5082254;28;20858;-73
2022/03/17 12:16:58;;;;;;;1.17;1.00;;;12.10;99.90;;;;;;5082737;28;20450;-72
2022/03/17 12:19:48;;;;;;;1.20;0.90;;;11.90;99.90;;;;;;5080062;28;20509;-73
2022/03/17 12:22:20;;;;;;;2.23;1.40;;;11.80;99.90;;;;;;5080430;28;20457;-74
2022/03/17 12:24:50;;;;;;;1.63;1.47;;;11.70;99.90;;;;;;5082225;28;20482;-73
2022/03/17 12:27:23;;;;;;;2.80;1.10;;;11.50;99.90;;;;;;5078516;28;20974;-74
2022/03/17 12:30:04;;;;;;;0.93;0.83;;;11.50;99.90;;;;;;5074913;28;20464;-74
2022/03/17 12:32:33;;;;;;;1.03;0.80;;;11.40;99.90;;;;;;5082507;28;20457;-74
2022/03/17 12:35:00;;;;;;;1.93;1.83;;;11.40;99.90;;;;;;5080513;28;20483;-74
2022/03/17 12:37:29;;;;;;;2.10;1.50;;;11.40;99.90;;;;;;5082388;28;20837;-74
2022/03/17 12:39:59;;;;;;;1.53;1.03;;;11.50;99.90;;;;;;5081128;28;20554;-74
2022/03/17 12:42:27;;;;;;;2.90;1.40;;;11.60;99.90;;;;;;5080685;28;20615;-74
2022/03/17 12:44:59;;;;;;;1.43;1.30;;;11.90;99.90;;;;;;5075644;28;20481;-75
2022/03/17 12:47:28;;;;;;;0.83;0.80;;;12.10;99.90;;;;;;5082125;28;20951;-75
2022/03/17 12:49:56;;;;;;;1.50;1.40;;;12.30;99.90;;;;;;5079557;28;20454;-72
2022/03/17 12:52:25;;;;;;;3.30;1.63;;;12.50;99.90;;;;;;5079309;28;20470;-74
2022/03/17 12:54:53;;;;;;;3.53;1.37;;;12.70;99.90;;;;;;5074674;28;20989;-75
2022/03/17 12:57:23;;;;;;;2.90;1.37;;;12.70;99.90;;;;;;5081437;28;20773;-74
2022/03/17 12:59:50;;;;;;;1.80;1.50;;;12.90;99.90;;;;;;5085432;28;20523;-73
2022/03/17 13:02:18;;;;;;;1.37;1.10;;;13.00;99.90;;;;;;5083623;28;20575;-74
2022/03/17 13:04:46;;;;;;;1.33;1.23;;;13.10;99.90;;;;;;5081750;28;20516;-74
2022/03/17 13:07:14;;;;;;;2.30;0.93;;;13.00;99.90;;;;;;5078771;28;20482;-72
2022/03/17 13:09:41;;;;;;;4.63;1.13;;;12.90;99.90;;;;;;5071679;28;20473;-72
2022/03/17 13:14:57;;;;;;;3.00;1.00;;;12.70;99.90;;;;;;5083356;28;20472;-72